Time;durP1;ratioP1;P1;durP2;ratioP2;P2;SDS_P1;SDS_P2;PMS_P1;PMS_P2;Temp;Humidity;BMP_temperature;BMP_pressure;BME280_temperature;BME280_humidity;BME280_pressure;Samples;Min_cycle;Max_cycle;Signal;HPM_P1;HPM_P2
2023/09/21 00:01:29;;;;;;;4.68;1.92;;;;;;;;;;4996505;28;20096;-71
2023/09/21 00:04:14;;;;;;;5.53;2.38;;;;;;;;;;4997863;28;20068;-71
2023/09/21 00:07:00;;;;;;;4.95;2.10;;;;;;;;;;5009081;28;20097;-71
2023/09/21 00:09:46;;;;;;;4.05;2.17;;;;;;;;;;5011297;28;20076;-75
2023/09/21 00:12:32;;;;;;;4.07;2.03;;;;;;;;;;5011008;28;20544;-70
2023/09/21 00:15:18;;;;;;;4.20;2.05;;;;;;;;;;4978278;28;20026;-70
2023/09/21 00:18:05;;;;;;;3.70;2.25;;;;;;;;;;4983244;28;20029;-69
2023/09/21 00:20:56;;;;;;;9.23;2.33;;;;;;;;;;4997838;28;20057;-70
2023/09/21 00:23:43;;;;;;;4.72;1.98;;;;;;;;;;5011285;28;20033;-70
2023/09/21 00:26:28;;;;;;;7.00;2.20;;;;;;;;;;4996873;28;20548;-69
2023/09/21 00:29:14;;;;;;;4.50;2.13;;;;;;;;;;4997710;28;20041;-74
2023/09/21 00:31:59;;;;;;;2.80;2.05;;;;;;;;;;4996872;28;20493;-70
2023/09/21 00:34:46;;;;;;;5.13;2.53;;;;;;;;;;4997280;28;20022;-70
2023/09/21 00:37:34;;;;;;;5.90;2.47;;;;;;;;;;5010977;28;20116;-71
2023/09/21 00:40:20;;;;;;;5.30;2.70;;;;;;;;;;4997674;28;20041;-71
2023/09/21 00:43:12;;;;;;;4.93;2.17;;;;;;;;;;4983334;28;20110;-71
2023/09/21 00:45:59;;;;;;;2.75;2.05;;;;;;;;;;5012333;28;20029;-76
2023/09/21 00:48:45;;;;;;;6.75;2.53;;;;;;;;;;4985785;28;20041;-75
2023/09/21 00:51:32;;;;;;;5.57;2.00;;;;;;;;;;5010594;28;20033;-76
2023/09/21 00:54:19;;;;;;;2.67;1.90;;;;;;;;;;5022043;28;20068;-77
2023/09/21 00:57:05;;;;;;;4.40;1.98;;;;;;;;;;4984162;28;20049;-77
2023/09/21 00:59:52;;;;;;;4.88;2.00;;;;;;;;;;4995727;28;20116;-76
2023/09/21 01:02:37;;;;;;;3.30;2.00;;;;;;;;;;5011146;28;20037;-75
2023/09/21 01:05:23;;;;;;;4.30;1.90;;;;;;;;;;5010561;28;20026;-77
2023/09/21 01:08:11;;;;;;;4.00;2.10;;;;;;;;;;5009467;28;20042;-70
2023/09/21 01:10:57;;;;;;;4.45;1.90;;;;;;;;;;4995183;28;20385;-69
2023/09/21 01:13:42;;;;;;;2.50;1.85;;;;;;;;;;4994283;28;20447;-67
2023/09/21 01:16:28;;;;;;;2.83;1.80;;;;;;;;;;5009042;28;20030;-67
2023/09/21 01:19:14;;;;;;;4.10;2.20;;;;;;;;;;5010369;28;20034;-67
2023/09/21 01:22:02;;;;;;;3.90;2.15;;;;;;;;;;5009271;28;20343;-68
2023/09/21 01:24:48;;;;;;;3.70;2.03;;;;;;;;;;5002335;28;20426;-72
2023/09/21 01:27:34;;;;;;;3.35;2.30;;;;;;;;;;5009329;28;20068;-75
2023/09/21 01:30:19;;;;;;;4.22;2.38;;;;;;;;;;4996295;28;20069;-74
2023/09/21 01:33:08;;;;;;;3.03;2.20;;;;;;;;;;4996299;28;20034;-76
2023/09/21 01:35:54;;;;;;;4.13;2.13;;;;;;;;;;5010140;28;20025;-76
2023/09/21 01:38:44;;;;;;;3.95;1.60;;;;;;;;;;5010182;28;20103;-76
2023/09/21 01:41:29;;;;;;;6.10;1.92;;;;;;;;;;5010366;28;20034;-69
2023/09/21 01:44:15;;;;;;;2.85;2.00;;;;;;;;;;5009662;28;20022;-75
2023/09/21 01:47:00;;;;;;;11.80;2.67;;;;;;;;;;5008810;28;20026;-77
2023/09/21 01:49:46;;;;;;;3.38;1.73;;;;;;;;;;4995183;28;20080;-77
2023/09/21 01:52:31;;;;;;;4.63;2.10;;;;;;;;;;5008236;28;20044;-76
2023/09/21 01:55:16;;;;;;;4.50;2.75;;;;;;;;;;5010667;28;20503;-76
2023/09/21 01:58:03;;;;;;;5.85;2.20;;;;;;;;;;5007286;28;20113;-76
2023/09/21 02:00:49;;;;;;;4.70;2.10;;;;;;;;;;4999729;28;20504;-66
2023/09/21 02:03:34;;;;;;;2.92;1.98;;;;;;;;;;4994521;28;20125;-75
2023/09/21 02:06:19;;;;;;;3.00;1.85;;;;;;;;;;5008312;28;20497;-76
2023/09/21 02:09:05;;;;;;;4.57;1.95;;;;;;;;;;5008189;28;20032;-77
2023/09/21 02:11:50;;;;;;;4.70;2.13;;;;;;;;;;4994193;28;20145;-76
2023/09/21 02:14:35;;;;;;;3.70;2.00;;;;;;;;;;5007403;28;20450;-76
2023/09/21 02:17:23;;;;;;;2.55;1.73;;;;;;;;;;4994218;28;20062;-70
2023/09/21 02:20:16;;;;;;;3.15;1.52;;;;;;;;;;5007979;28;20456;-77
2023/09/21 02:23:02;;;;;;;2.55;1.92;;;;;;;;;;5006435;28;20037;-76
2023/09/21 02:25:47;;;;;;;3.05;1.63;;;;;;;;;;4999576;28;20025;-78
2023/09/21 02:28:33;;;;;;;3.15;2.08;;;;;;;;;;5009176;28;20026;-76
2023/09/21 02:31:21;;;;;;;3.80;2.03;;;;;;;;;;4995928;28;20271;-76
2023/09/21 02:34:06;;;;;;;5.35;1.77;;;;;;;;;;4995204;28;20121;-75
2023/09/21 02:36:53;;;;;;;5.47;2.58;;;;;;;;;;5008744;28;20645;-69
2023/09/21 02:39:38;;;;;;;4.05;1.83;;;;;;;;;;5006960;28;20038;-71
2023/09/21 02:42:23;;;;;;;4.53;2.08;;;;;;;;;;5008474;28;20042;-69
2023/09/21 02:45:10;;;;;;;4.65;2.20;;;;;;;;;;5008622;28;20054;-71
2023/09/21 02:48:00;;;;;;;6.03;2.33;;;;;;;;;;4994980;28;20089;-71
2023/09/21 02:50:48;;;;;;;3.75;1.95;;;;;;;;;;5002193;28;20038;-70
2023/09/21 02:53:34;;;;;;;5.90;2.20;;;;;;;;;;4988593;28;20060;-68
2023/09/21 02:56:20;;;;;;;2.72;1.88;;;;;;;;;;4996905;28;20032;-68
2023/09/21 02:59:07;;;;;;;2.92;1.90;;;;;;;;;;5007160;28;20030;-68
2023/09/21 03:01:54;;;;;;;4.47;2.10;;;;;;;;;;4994906;28;20121;-66
2023/09/21 03:04:42;;;;;;;2.53;1.88;;;;;;;;;;5008574;28;20061;-66
2023/09/21 03:07:27;;;;;;;3.80;2.05;;;;;;;;;;5008553;28;20037;-67
2023/09/21 03:10:13;;;;;;;3.20;1.55;;;;;;;;;;5008531;28;20473;-68
2023/09/21 03:12:59;;;;;;;2.35;1.85;;;;;;;;;;5008350;28;20477;-76
2023/09/21 03:15:48;;;;;;;3.10;2.00;;;;;;;;;;4994917;28;20045;-75
2023/09/21 03:18:33;;;;;;;3.20;1.75;;;;;;;;;;4994885;28;20022;-75
2023/09/21 03:21:18;;;;;;;4.75;1.85;;;;;;;;;;4995718;28;20589;-75
2023/09/21 03:24:04;;;;;;;4.10;1.80;;;;;;;;;;4998545;28;20063;-75
2023/09/21 03:26:50;;;;;;;3.13;1.92;;;;;;;;;;5003988;28;20033;-75
2023/09/21 03:29:35;;;;;;;5.53;2.08;;;;;;;;;;4994950;28;20289;-75
2023/09/21 03:32:20;;;;;;;2.65;1.80;;;;;;;;;;5008402;28;20041;-68
2023/09/21 03:35:06;;;;;;;5.47;2.05;;;;;;;;;;5008026;28;20084;-70
2023/09/21 03:37:53;;;;;;;6.88;2.28;;;;;;;;;;5008096;28;20040;-71
2023/09/21 03:40:42;;;;;;;4.65;2.58;;;;;;;;;;5007754;28;20362;-72
2023/09/21 03:43:27;;;;;;;4.05;2.22;;;;;;;;;;5008220;28;20068;-70
2023/09/21 03:46:12;;;;;;;4.15;2.42;;;;;;;;;;4994643;28;20077;-69
2023/09/21 03:48:58;;;;;;;4.05;2.30;;;;;;;;;;5007843;28;20026;-70
2023/09/21 03:51:44;;;;;;;2.95;2.08;;;;;;;;;;4995566;28;20034;-71
2023/09/21 03:54:29;;;;;;;5.10;2.15;;;;;;;;;;5005210;28;20046;-74
2023/09/21 03:57:15;;;;;;;4.18;2.22;;;;;;;;;;5008104;28;20507;-75
2023/09/21 04:00:05;;;;;;;3.17;2.25;;;;;;;;;;4994312;28;20025;-76
2023/09/21 04:02:51;;;;;;;3.22;1.63;;;;;;;;;;5007665;28;20458;-75
2023/09/21 04:05:37;;;;;;;4.18;2.30;;;;;;;;;;5007861;28;20034;-76
2023/09/21 04:08:22;;;;;;;4.72;2.65;;;;;;;;;;5007488;28;20037;-69
2023/09/21 04:11:08;;;;;;;4.65;2.10;;;;;;;;;;4994285;28;20049;-71
2023/09/21 04:13:53;;;;;;;3.95;2.20;;;;;;;;;;4994002;28;20034;-70
2023/09/21 04:16:38;;;;;;;2.97;2.17;;;;;;;;;;4993656;28;20030;-69
2023/09/21 04:19:24;;;;;;;5.53;2.17;;;;;;;;;;5007506;28;20061;-71
2023/09/21 04:22:09;;;;;;;5.63;2.22;;;;;;;;;;4994061;28;20022;-71
2023/09/21 04:24:55;;;;;;;5.38;2.40;;;;;;;;;;5001012;28;20034;-69
2023/09/21 04:27:42;;;;;;;4.72;2.28;;;;;;;;;;5006720;28;20061;-73
2023/09/21 04:30:27;;;;;;;4.75;2.30;;;;;;;;;;4992589;28;20030;-76
2023/09/21 04:33:12;;;;;;;3.95;2.40;;;;;;;;;;4992728;28;20158;-76
2023/09/21 04:35:57;;;;;;;2.80;1.73;;;;;;;;;;5006466;28;20029;-77
2023/09/21 04:38:44;;;;;;;5.03;2.30;;;;;;;;;;5008321;28;20473;-75
2023/09/21 04:41:30;;;;;;;5.43;2.42;;;;;;;;;;5009840;28;20323;-78
2023/09/21 04:44:15;;;;;;;3.17;2.28;;;;;;;;;;5009537;28;20084;-77
2023/09/21 04:47:02;;;;;;;3.67;2.38;;;;;;;;;;5010324;28;20088;-69
2023/09/21 04:49:48;;;;;;;6.75;2.38;;;;;;;;;;4997113;28;20120;-73
2023/09/21 04:52:34;;;;;;;4.18;2.88;;;;;;;;;;5010070;28;20555;-75
2023/09/21 04:55:19;;;;;;;5.40;2.45;;;;;;;;;;5021693;28;20183;-76
2023/09/21 04:58:05;;;;;;;8.80;2.40;;;;;;;;;;4997117;28;20041;-76
2023/09/21 05:00:50;;;;;;;7.13;2.45;;;;;;;;;;5002179;28;20116;-76
2023/09/21 05:03:36;;;;;;;2.95;1.88;;;;;;;;;;5009925;28;20037;-73
2023/09/21 05:06:23;;;;;;;3.70;2.33;;;;;;;;;;4996412;28;20034;-72
2023/09/21 05:09:10;;;;;;;5.22;2.17;;;;;;;;;;5010995;28;20061;-74
2023/09/21 05:11:56;;;;;;;4.70;2.53;;;;;;;;;;5010800;28;20169;-72
2023/09/21 05:14:41;;;;;;;8.15;3.45;;;;;;;;;;5007648;28;20124;-72
2023/09/21 05:17:26;;;;;;;5.70;2.70;;;;;;;;;;5006977;28;20056;-74
2023/09/21 05:20:12;;;;;;;10.40;2.97;;;;;;;;;;4994419;28;20052;-73
2023/09/21 05:22:57;;;;;;;5.22;2.63;;;;;;;;;;5009339;28;20576;-72
2023/09/21 05:25:42;;;;;;;8.45;3.10;;;;;;;;;;5009660;28;20030;-71
2023/09/21 05:28:27;;;;;;;8.75;2.90;;;;;;;;;;5010250;28;20018;-70
2023/09/21 05:31:13;;;;;;;5.80;2.80;;;;;;;;;;5003960;28;20358;-73
2023/09/21 05:34:00;;;;;;;4.20;2.40;;;;;;;;;;5005522;28;20040;-71
2023/09/21 05:36:46;;;;;;;3.90;2.40;;;;;;;;;;5010059;28;20041;-72
2023/09/21 05:39:32;;;;;;;5.93;2.83;;;;;;;;;;4995899;28;20045;-72
2023/09/21 05:42:17;;;;;;;6.35;3.40;;;;;;;;;;4995864;28;20030;-73
2023/09/21 05:45:03;;;;;;;5.80;2.67;;;;;;;;;;5009855;28;20092;-65
2023/09/21 05:47:48;;;;;;;4.55;2.55;;;;;;;;;;4996773;28;20018;-65
2023/09/21 05:50:33;;;;;;;4.82;2.45;;;;;;;;;;5000697;28;20084;-64
2023/09/21 05:53:20;;;;;;;5.53;2.55;;;;;;;;;;5012782;28;20029;-66
2023/09/21 05:56:05;;;;;;;7.03;4.05;;;;;;;;;;5000551;28;20030;-64
2023/09/21 05:58:51;;;;;;;4.78;2.90;;;;;;;;;;5009686;28;20026;-76
2023/09/21 06:01:36;;;;;;;3.70;2.40;;;;;;;;;;4995725;28;20502;-71
2023/09/21 06:04:22;;;;;;;4.90;2.88;;;;;;;;;;4995991;28;20038;-70
2023/09/21 06:07:07;;;;;;;3.80;2.33;;;;;;;;;;5009066;28;20351;-71
2023/09/21 06:09:52;;;;;;;5.45;2.72;;;;;;;;;;4995458;28;20611;-72
2023/09/21 06:12:38;;;;;;;5.07;2.70;;;;;;;;;;5008708;28;20030;-71
2023/09/21 06:15:23;;;;;;;4.35;2.38;;;;;;;;;;5004862;28;20034;-71
2023/09/21 06:18:08;;;;;;;5.07;2.60;;;;;;;;;;5008132;28;20051;-72
2023/09/21 06:20:55;;;;;;;7.03;3.55;;;;;;;;;;4994199;28;20405;-72
2023/09/21 06:23:44;;;;;;;3.85;2.40;;;;;;;;;;4994598;28;20080;-71
2023/09/21 06:26:29;;;;;;;13.02;3.67;;;;;;;;;;5007887;28;20033;-71
2023/09/21 06:29:14;;;;;;;6.35;3.40;;;;;;;;;;5008804;28;20030;-70
2023/09/21 06:32:00;;;;;;;5.07;3.33;;;;;;;;;;5009207;28;20033;-71
2023/09/21 06:34:46;;;;;;;4.82;2.75;;;;;;;;;;5009229;28;20060;-71
2023/09/21 06:37:33;;;;;;;6.40;3.10;;;;;;;;;;5008090;28;20040;-76
2023/09/21 06:40:18;;;;;;;6.72;3.03;;;;;;;;;;5008087;28;20271;-70
2023/09/21 06:43:05;;;;;;;4.20;2.53;;;;;;;;;;5008009;28;20321;-69
2023/09/21 06:45:51;;;;;;;6.40;2.72;;;;;;;;;;4994352;28;20084;-72
2023/09/21 06:48:36;;;;;;;6.20;2.83;;;;;;;;;;5007850;28;20036;-70
2023/09/21 06:51:22;;;;;;;8.32;2.80;;;;;;;;;;4994231;28;20038;-71
2023/09/21 06:54:07;;;;;;;8.13;3.78;;;;;;;;;;5017858;28;20026;-76
2023/09/21 06:56:52;;;;;;;5.72;2.75;;;;;;;;;;4982597;28;20117;-75
2023/09/21 06:59:38;;;;;;;4.25;2.40;;;;;;;;;;5008347;28;20351;-74
2023/09/21 07:02:26;;;;;;;7.50;2.92;;;;;;;;;;5008421;28;20037;-77
2023/09/21 07:05:12;;;;;;;5.57;2.50;;;;;;;;;;5008664;28;20567;-76
2023/09/21 07:07:57;;;;;;;4.32;2.70;;;;;;;;;;5008326;28;20075;-77
2023/09/21 07:10:43;;;;;;;6.65;2.85;;;;;;;;;;4994484;28;20041;-75
2023/09/21 07:13:29;;;;;;;5.57;2.88;;;;;;;;;;5007510;28;20088;-74
2023/09/21 07:16:14;;;;;;;7.15;3.15;;;;;;;;;;4994593;28;20061;-67
2023/09/21 07:19:00;;;;;;;4.38;2.50;;;;;;;;;;5007299;28;20014;-70
2023/09/21 07:21:45;;;;;;;4.60;2.90;;;;;;;;;;5007570;28;20077;-68
2023/09/21 07:24:30;;;;;;;5.20;2.55;;;;;;;;;;5005405;28;20105;-69
2023/09/21 07:27:16;;;;;;;7.20;3.10;;;;;;;;;;5008554;28;20504;-67
2023/09/21 07:30:03;;;;;;;5.72;2.38;;;;;;;;;;4977570;28;20032;-68
2023/09/21 07:32:49;;;;;;;9.15;3.05;;;;;;;;;;5006618;28;20488;-68
2023/09/21 07:35:34;;;;;;;6.60;3.15;;;;;;;;;;4994348;28;20117;-67
2023/09/21 07:38:21;;;;;;;5.40;3.30;;;;;;;;;;5008438;28;20033;-69
2023/09/21 07:41:07;;;;;;;6.07;2.88;;;;;;;;;;5007842;28;20465;-68
2023/09/21 07:43:52;;;;;;;8.18;3.58;;;;;;;;;;4980573;28;20029;-71
2023/09/21 07:46:37;;;;;;;5.57;2.97;;;;;;;;;;4981935;28;20049;-70
2023/09/21 07:49:25;;;;;;;6.22;2.75;;;;;;;;;;5007557;28;20022;-69
2023/09/21 07:52:10;;;;;;;7.05;3.25;;;;;;;;;;5004358;28;20034;-68
2023/09/21 07:54:56;;;;;;;4.50;2.97;;;;;;;;;;5001670;28;20096;-68
2023/09/21 07:57:42;;;;;;;6.75;2.83;;;;;;;;;;5004616;28;20065;-67
2023/09/21 08:00:27;;;;;;;5.38;2.50;;;;;;;;;;5004394;28;20034;-68
2023/09/21 08:03:13;;;;;;;8.90;3.10;;;;;;;;;;5004810;28;20045;-69
2023/09/21 08:06:01;;;;;;;6.47;2.90;;;;;;;;;;5005794;28;20083;-68
2023/09/21 08:08:47;;;;;;;5.43;2.67;;;;;;;;;;5004537;28;20523;-71
2023/09/21 08:11:33;;;;;;;9.80;2.88;;;;;;;;;;5007993;28;20058;-65
2023/09/21 08:14:18;;;;;;;4.20;2.45;;;;;;;;;;5011481;28;20087;-67
2023/09/21 08:17:04;;;;;;;8.70;2.90;;;;;;;;;;4996554;28;20092;-66
2023/09/21 08:19:49;;;;;;;6.60;2.50;;;;;;;;;;5010613;28;20060;-68
2023/09/21 08:22:35;;;;;;;5.72;2.20;;;;;;;;;;5009991;28;20103;-66
2023/09/21 08:25:21;;;;;;;6.60;2.70;;;;;;;;;;4995655;28;20044;-76
2023/09/21 08:28:07;;;;;;;6.63;2.72;;;;;;;;;;5010145;28;20045;-76
2023/09/21 08:30:53;;;;;;;5.38;2.33;;;;;;;;;;4994891;28;20108;-70
2023/09/21 08:33:38;;;;;;;5.03;2.33;;;;;;;;;;4995267;28;20030;-67
2023/09/21 08:36:24;;;;;;;3.28;2.05;;;;;;;;;;5008702;28;20041;-67
2023/09/21 08:39:09;;;;;;;6.13;2.80;;;;;;;;;;5008033;28;20061;-67
2023/09/21 08:41:54;;;;;;;5.63;2.40;;;;;;;;;;5008024;28;20153;-65
2023/09/21 08:44:40;;;;;;;4.97;2.47;;;;;;;;;;5007655;28;20513;-76
2023/09/21 08:47:28;;;;;;;4.53;2.22;;;;;;;;;;4995395;28;20461;-69
2023/09/21 08:50:16;;;;;;;4.65;2.47;;;;;;;;;;5010570;28;20548;-69
2023/09/21 08:53:02;;;;;;;5.13;2.38;;;;;;;;;;4999070;28;20038;-69
2023/09/21 08:55:52;;;;;;;4.55;1.83;;;;;;;;;;5005449;28;20022;-69
2023/09/21 08:58:40;;;;;;;4.80;2.40;;;;;;;;;;5011485;28;20026;-69
2023/09/21 09:01:26;;;;;;;4.10;2.38;;;;;;;;;;4983218;28;20018;-69
2023/09/21 09:04:11;;;;;;;7.00;2.20;;;;;;;;;;5009396;28;20091;-73
2023/09/21 09:06:57;;;;;;;4.90;2.10;;;;;;;;;;5009097;28;20022;-66
2023/09/21 09:09:43;;;;;;;4.53;2.20;;;;;;;;;;5008363;28;20546;-66
2023/09/21 09:12:28;;;;;;;4.38;2.40;;;;;;;;;;5008897;28;20030;-65
2023/09/21 09:15:14;;;;;;;2.95;1.92;;;;;;;;;;5008342;28;20051;-65
2023/09/21 09:18:03;;;;;;;5.03;1.95;;;;;;;;;;5008938;28;20029;-66
2023/09/21 09:20:48;;;;;;;2.63;1.90;;;;;;;;;;4994804;28;20057;-72
2023/09/21 09:23:38;;;;;;;4.25;2.28;;;;;;;;;;5009630;28;20065;-71
2023/09/21 09:26:24;;;;;;;3.97;2.08;;;;;;;;;;4994445;28;20048;-74
2023/09/21 09:29:11;;;;;;;4.15;2.10;;;;;;;;;;5010360;28;20026;-74
2023/09/21 09:31:59;;;;;;;4.50;1.80;;;;;;;;;;5010539;28;20048;-74
2023/09/21 09:34:46;;;;;;;2.50;1.88;;;;;;;;;;5010611;28;20030;-74
2023/09/21 09:37:34;;;;;;;2.78;1.90;;;;;;;;;;5010008;28;20029;-74
2023/09/21 09:40:23;;;;;;;3.83;1.77;;;;;;;;;;5010487;28;20046;-67
2023/09/21 09:43:12;;;;;;;4.57;2.25;;;;;;;;;;5009808;28;20531;-70
2023/09/21 09:45:58;;;;;;;;;;;;;;;;;;4996659;28;20029;-72
2023/09/21 09:48:43;;;;;;;2.42;1.80;;;;;;;;;;4996540;28;20452;-70
2023/09/21 09:51:34;;;;;;;4.35;2.10;;;;;;;;;;5009420;28;20057;-71
2023/09/21 09:54:21;;;;;;;2.42;1.92;;;;;;;;;;5020753;28;20072;-69
2023/09/21 09:57:11;;;;;;;2.92;1.80;;;;;;;;;;5009846;28;20034;-69
2023/09/21 09:59:57;;;;;;;3.28;1.70;;;;;;;;;;4995892;28;20052;-70
2023/09/21 10:02:44;;;;;;;4.85;2.20;;;;;;;;;;5009821;28;20033;-69
2023/09/21 10:05:30;;;;;;;3.45;1.90;;;;;;;;;;5009940;28;20637;-69
2023/09/21 10:08:15;;;;;;;3.38;1.98;;;;;;;;;;4996069;28;20037;-73
2023/09/21 10:11:03;;;;;;;3.38;1.80;;;;;;;;;;5009819;28;20613;-69
2023/09/21 10:13:51;;;;;;;3.90;1.95;;;;;;;;;;5009493;28;20065;-72
2023/09/21 10:16:39;;;;;;;3.38;1.83;;;;;;;;;;4996022;28;20446;-73
2023/09/21 10:19:26;;;;;;;1.80;1.37;;;;;;;;;;5009458;28;20084;-63
2023/09/21 10:22:21;;;;;;;6.00;2.22;;;;;;;;;;5006296;28;20112;-65
2023/09/21 10:25:06;;;;;;;3.33;1.90;;;;;;;;;;5002911;28;20030;-64
2023/09/21 10:27:52;;;;;;;5.70;2.10;;;;;;;;;;5009010;28;20049;-67
2023/09/21 10:30:39;;;;;;;4.47;1.83;;;;;;;;;;5009091;28;20496;-64
2023/09/21 10:33:25;;;;;;;4.38;2.00;;;;;;;;;;5008086;28;20461;-67
2023/09/21 10:36:11;;;;;;;3.47;1.88;;;;;;;;;;5008591;28;20539;-70
2023/09/21 10:39:05;;;;;;;3.30;1.73;;;;;;;;;;5009175;28;20033;-71
2023/09/21 10:41:52;;;;;;;4.10;1.95;;;;;;;;;;4995232;28;20072;-71
2023/09/21 10:45:00;;;;;;;4.43;1.80;;;;;;;;;;4995487;28;20033;-73
2023/09/21 10:47:49;;;;;;;4.35;1.77;;;;;;;;;;4995462;28;20133;-69
2023/09/21 10:50:35;;;;;;;4.00;1.60;;;;;;;;;;5001241;28;20033;-70
2023/09/21 10:53:23;;;;;;;4.55;2.08;;;;;;;;;;5012287;28;20045;-72
2023/09/21 10:56:08;;;;;;;3.50;2.10;;;;;;;;;;4999436;28;20137;-70
2023/09/21 10:58:54;;;;;;;3.28;2.17;;;;;;;;;;5008694;28;20110;-72
2023/09/21 11:01:39;;;;;;;3.83;1.70;;;;;;;;;;4994970;28;20029;-71
2023/09/21 11:04:24;;;;;;;2.85;1.85;;;;;;;;;;5008555;28;20088;-70
2023/09/21 11:07:13;;;;;;;3.20;2.08;;;;;;;;;;5008662;28;20025;-71
2023/09/21 11:09:58;;;;;;;2.60;1.55;;;;;;;;;;4994526;28;20025;-71
2023/09/21 11:12:45;;;;;;;5.05;1.80;;;;;;;;;;5008386;28;20065;-67
2023/09/21 11:15:32;;;;;;;1.83;1.42;;;;;;;;;;4994651;28;20059;-71
2023/09/21 11:18:17;;;;;;;3.08;2.28;;;;;;;;;;4990568;28;20041;-70
2023/09/21 11:21:03;;;;;;;1.63;1.30;;;;;;;;;;5008565;28;20037;-69
2023/09/21 11:23:49;;;;;;;3.45;1.90;;;;;;;;;;4994630;28;20044;-72
2023/09/21 11:26:35;;;;;;;2.75;1.73;;;;;;;;;;5002691;28;20036;-70
2023/09/21 11:29:21;;;;;;;3.47;1.50;;;;;;;;;;5008065;28;20408;-71
2023/09/21 11:32:07;;;;;;;1.83;1.52;;;;;;;;;;5006008;28;20029;-74
2023/09/21 11:34:58;;;;;;;2.88;1.60;;;;;;;;;;5007176;28;20037;-75
2023/09/21 11:37:45;;;;;;;5.05;1.70;;;;;;;;;;5008102;28;20044;-73
2023/09/21 11:40:31;;;;;;;3.88;1.77;;;;;;;;;;5008699;28;20083;-76
2023/09/21 11:43:17;;;;;;;2.90;1.75;;;;;;;;;;5008548;28;20025;-74
2023/09/21 11:46:03;;;;;;;3.03;1.60;;;;;;;;;;4994042;28;20061;-75
2023/09/21 11:48:49;;;;;;;4.22;2.55;;;;;;;;;;4997443;28;20413;-65
2023/09/21 11:51:34;;;;;;;4.40;1.80;;;;;;;;;;4996630;28;20109;-71
2023/09/21 11:54:19;;;;;;;2.92;1.85;;;;;;;;;;5020043;28;20045;-71
2023/09/21 11:57:06;;;;;;;2.80;1.65;;;;;;;;;;5012263;28;20053;-71
2023/09/21 11:59:56;;;;;;;2.20;1.30;;;;;;;;;;5011255;28;20503;-71
2023/09/21 12:02:41;;;;;;;2.03;1.63;;;;;;;;;;5011865;28;20034;-72
2023/09/21 12:05:26;;;;;;;4.68;2.08;;;;;;;;;;5012132;28;20122;-71
2023/09/21 12:08:13;;;;;;;2.60;1.83;;;;;;;;;;5010212;28;20053;-75
2023/09/21 12:10:59;;;;;;;4.00;1.50;;;;;;;;;;5008322;28;20047;-67
2023/09/21 12:13:44;;;;;;;1.75;1.55;;;;;;;;;;4994123;28;20137;-67
2023/09/21 12:16:30;;;;;;;4.65;1.70;;;;;;;;;;4994713;28;20056;-66
2023/09/21 12:19:19;;;;;;;4.13;1.88;;;;;;;;;;5008648;28;20034;-66
2023/09/21 12:22:05;;;;;;;3.63;1.75;;;;;;;;;;4994628;28;20025;-66
2023/09/21 12:24:51;;;;;;;2.47;1.48;;;;;;;;;;4994657;28;20068;-66
2023/09/21 12:27:38;;;;;;;2.67;1.52;;;;;;;;;;5007250;28;20067;-75
2023/09/21 12:30:23;;;;;;;1.90;1.27;;;;;;;;;;5011220;28;20034;-76
2023/09/21 12:33:08;;;;;;;3.63;1.98;;;;;;;;;;4997547;28;20034;-76
2023/09/21 12:35:54;;;;;;;2.88;1.70;;;;;;;;;;5010856;28;20026;-74
2023/09/21 12:38:40;;;;;;;2.92;1.77;;;;;;;;;;5011194;28;20072;-75
2023/09/21 12:41:26;;;;;;;4.38;1.75;;;;;;;;;;5011252;28;20033;-75
2023/09/21 12:44:11;;;;;;;5.30;2.28;;;;;;;;;;4997343;28;20924;-75
2023/09/21 12:46:57;;;;;;;3.85;1.75;;;;;;;;;;5010045;28;20042;-75
2023/09/21 12:49:42;;;;;;;2.90;1.67;;;;;;;;;;4982240;28;20480;-74
2023/09/21 12:52:29;;;;;;;2.03;1.55;;;;;;;;;;5011267;28;20393;-73
2023/09/21 12:55:15;;;;;;;2.55;1.58;;;;;;;;;;5021822;28;20032;-74
2023/09/21 12:58:00;;;;;;;4.20;1.80;;;;;;;;;;5011558;28;20048;-73
2023/09/21 13:00:46;;;;;;;5.32;2.42;;;;;;;;;;5002977;28;20560;-74
2023/09/21 13:03:31;;;;;;;2.75;1.70;;;;;;;;;;5011029;28;20376;-67
2023/09/21 13:06:16;;;;;;;5.07;1.92;;;;;;;;;;4996549;28;20088;-70
2023/09/21 13:09:02;;;;;;;3.05;1.92;;;;;;;;;;4996376;28;20022;-70
2023/09/21 13:11:47;;;;;;;2.30;1.70;;;;;;;;;;4997045;28;20112;-70
2023/09/21 13:14:33;;;;;;;3.42;2.15;;;;;;;;;;4983581;28;20523;-70
2023/09/21 13:17:23;;;;;;;4.32;1.73;;;;;;;;;;4985512;28;20105;-71
2023/09/21 13:20:16;;;;;;;2.25;1.70;;;;;;;;;;5010060;28;20033;-74
2023/09/21 13:23:05;;;;;;;2.45;1.60;;;;;;;;;;4983107;28;20022;-71
2023/09/21 13:25:50;;;;;;;2.55;1.60;;;;;;;;;;4996703;28;20160;-72
2023/09/21 13:28:35;;;;;;;3.47;1.70;;;;;;;;;;5010691;28;20084;-70
2023/09/21 13:31:24;;;;;;;2.05;1.63;;;;;;;;;;4997107;28;20057;-71
2023/09/21 13:34:10;;;;;;;2.00;1.50;;;;;;;;;;4996462;28;20048;-72
2023/09/21 13:36:55;;;;;;;5.10;1.77;;;;;;;;;;4996598;28;20025;-72
2023/09/21 13:39:40;;;;;;;2.67;1.60;;;;;;;;;;5009670;28;20038;-76
2023/09/21 13:42:26;;;;;;;3.08;1.73;;;;;;;;;;4993164;28;20104;-66
2023/09/21 13:45:12;;;;;;;2.53;1.30;;;;;;;;;;5006500;28;20124;-66
2023/09/21 13:47:58;;;;;;;2.50;1.63;;;;;;;;;;5006849;28;20033;-69
2023/09/21 13:50:43;;;;;;;4.53;1.42;;;;;;;;;;4999857;28;20034;-67
2023/09/21 13:53:28;;;;;;;3.03;1.73;;;;;;;;;;5010641;28;20037;-67
2023/09/21 13:56:14;;;;;;;4.43;1.67;;;;;;;;;;4996358;28;20037;-68
2023/09/21 13:58:59;;;;;;;2.47;1.92;;;;;;;;;;5007757;28;20030;-74
2023/09/21 14:01:45;;;;;;;3.55;1.98;;;;;;;;;;5009533;28;20045;-70
2023/09/21 14:04:30;;;;;;;5.55;2.45;;;;;;;;;;5009514;28;20120;-70
2023/09/21 14:07:15;;;;;;;2.10;1.70;;;;;;;;;;5006994;28;20030;-70
2023/09/21 14:10:04;;;;;;;3.55;2.22;;;;;;;;;;5008394;28;20033;-70
2023/09/21 14:12:49;;;;;;;;;;;;;;;;;;5010124;28;20073;-70
2023/09/21 14:15:35;;;;;;;4.65;2.00;;;;;;;;;;4995478;28;19975;-74
2023/09/21 14:18:20;;;;;;;3.80;2.10;;;;;;;;;;5006154;28;20354;-76
2023/09/21 14:21:09;;;;;;;1.58;1.35;;;;;;;;;;5006691;28;20033;-67
2023/09/21 14:23:54;;;;;;;3.95;1.90;;;;;;;;;;4994237;28;20029;-67
2023/09/21 14:26:39;;;;;;;3.35;1.70;;;;;;;;;;5004283;28;20030;-67
2023/09/21 14:29:25;;;;;;;4.28;1.75;;;;;;;;;;5008901;28;20080;-66
2023/09/21 14:32:10;;;;;;;3.50;2.00;;;;;;;;;;5008827;28;20257;-66
2023/09/21 14:34:56;;;;;;;2.45;1.50;;;;;;;;;;4995307;28;20416;-78
2023/09/21 14:37:41;;;;;;;3.63;2.13;;;;;;;;;;4981067;28;20022;-69
2023/09/21 14:40:29;;;;;;;6.22;2.60;;;;;;;;;;4980617;28;20477;-67
2023/09/21 14:43:15;;;;;;;2.20;1.70;;;;;;;;;;5008327;28;20116;-67
2023/09/21 14:46:00;;;;;;;3.05;1.60;;;;;;;;;;4994217;28;20114;-67
2023/09/21 14:48:45;;;;;;;1.77;1.33;;;;;;;;;;5008148;28;20040;-67
2023/09/21 14:51:30;;;;;;;2.70;1.80;;;;;;;;;;5007741;28;20664;-67
2023/09/21 14:54:16;;;;;;;3.75;2.08;;;;;;;;;;5018628;28;20465;-73
2023/09/21 14:57:01;;;;;;;3.67;2.17;;;;;;;;;;5007005;28;20465;-76
2023/09/21 14:59:46;;;;;;;3.45;2.35;;;;;;;;;;5008363;28;20728;-76
2023/09/21 15:02:31;;;;;;;1.75;1.60;;;;;;;;;;5008369;28;20033;-76
2023/09/21 15:05:17;;;;;;;3.92;2.05;;;;;;;;;;4982316;28;20037;-76
2023/09/21 15:08:03;;;;;;;3.10;2.00;;;;;;;;;;4994520;28;20034;-75
2023/09/21 15:10:53;;;;;;;4.50;2.03;;;;;;;;;;4994556;28;20048;-73
2023/09/21 15:13:38;;;;;;;4.90;1.85;;;;;;;;;;5007509;28;20547;-70
2023/09/21 15:16:24;;;;;;;2.20;1.88;;;;;;;;;;4994450;28;20087;-67
2023/09/21 15:19:09;;;;;;;3.10;1.90;;;;;;;;;;4994728;28;20076;-66
2023/09/21 15:21:55;;;;;;;4.70;2.03;;;;;;;;;;4994243;28;20029;-68
2023/09/21 15:24:40;;;;;;;3.72;1.90;;;;;;;;;;5003905;28;20105;-67
2023/09/21 15:27:26;;;;;;;3.28;1.83;;;;;;;;;;4991633;28;20424;-66
2023/09/21 15:30:11;;;;;;;2.50;1.77;;;;;;;;;;5007339;28;20045;-68
2023/09/21 15:32:57;;;;;;;4.45;2.47;;;;;;;;;;4993202;28;20053;-72
2023/09/21 15:35:42;;;;;;;4.05;2.47;;;;;;;;;;5006482;28;20112;-71
2023/09/21 15:38:27;;;;;;;5.88;3.47;;;;;;;;;;4993400;28;20057;-72
2023/09/21 15:41:13;;;;;;;5.63;2.95;;;;;;;;;;5007155;28;20527;-74
2023/09/21 15:44:00;;;;;;;4.03;2.40;;;;;;;;;;5007404;28;20105;-72
2023/09/21 15:46:46;;;;;;;3.47;2.30;;;;;;;;;;4994418;28;20044;-70
2023/09/21 15:49:31;;;;;;;4.45;2.15;;;;;;;;;;5006913;28;20044;-67
2023/09/21 15:52:17;;;;;;;3.78;2.45;;;;;;;;;;4994175;28;20030;-74
2023/09/21 15:55:04;;;;;;;4.65;2.67;;;;;;;;;;5018815;28;20037;-74
2023/09/21 15:57:49;;;;;;;5.22;2.22;;;;;;;;;;4994259;28;20033;-78
2023/09/21 16:00:34;;;;;;;4.82;2.67;;;;;;;;;;4997893;28;20052;-75
2023/09/21 16:03:20;;;;;;;5.38;2.33;;;;;;;;;;5007667;28;20053;-75
2023/09/21 16:06:05;;;;;;;5.70;2.95;;;;;;;;;;5007816;28;20044;-73
2023/09/21 16:08:51;;;;;;;4.28;2.28;;;;;;;;;;5008054;28;20508;-70
2023/09/21 16:11:37;;;;;;;3.55;1.75;;;;;;;;;;5007517;28;20463;-66
2023/09/21 16:14:23;;;;;;;6.28;2.25;;;;;;;;;;5006710;28;20034;-67
2023/09/21 16:17:08;;;;;;;5.78;1.80;;;;;;;;;;4967445;28;20132;-68
2023/09/21 16:19:54;;;;;;;5.07;2.50;;;;;;;;;;5006525;28;20054;-67
2023/09/21 16:22:40;;;;;;;3.83;2.17;;;;;;;;;;5007818;28;20172;-67
2023/09/21 16:25:25;;;;;;;5.22;1.98;;;;;;;;;;4993838;28;20041;-75
2023/09/21 16:28:11;;;;;;;4.80;2.42;;;;;;;;;;5007365;28;20520;-71
2023/09/21 16:30:57;;;;;;;8.13;4.28;;;;;;;;;;5007464;28;20034;-71
2023/09/21 16:33:42;;;;;;;5.03;3.45;;;;;;;;;;4995132;28;20085;-72
2023/09/21 16:36:27;;;;;;;6.47;3.10;;;;;;;;;;5011381;28;20074;-73